Time;durP1;ratioP1;P1;durP2;ratioP2;P2;SDS_P1;SDS_P2;PMS_P1;PMS_P2;Temp;Humidity;BMP_temperature;BMP_pressure;BME280_temperature;BME280_humidity;BME280_pressure;Samples;Min_cycle;Max_cycle;Signal;HPM_P1;HPM_P2
2022/06/27 00:01:12;;;;;;;1.40;1.20;;;18.70;99.90;;;;;;5101569;28;20185;-42
2022/06/27 00:03:38;;;;;;;1.83;1.33;;;18.70;99.90;;;;;;5101733;28;20213;-42
2022/06/27 00:06:04;;;;;;;1.67;1.50;;;18.50;99.90;;;;;;5101346;28;20208;-40
2022/06/27 00:08:29;;;;;;;1.40;1.03;;;18.50;99.90;;;;;;5101039;28;20264;-40
2022/06/27 00:10:55;;;;;;;1.47;1.17;;;18.50;99.90;;;;;;5101106;28;20172;-44
2022/06/27 00:13:21;;;;;;;1.77;1.13;;;18.30;99.90;;;;;;5101370;28;20181;-39
2022/06/27 00:15:47;;;;;;;1.87;1.03;;;18.30;99.90;;;;;;5101068;28;20427;-40
2022/06/27 00:18:12;;;;;;;2.40;1.33;;;18.30;99.90;;;;;;5100668;28;20169;-42
2022/06/27 00:20:38;;;;;;;3.67;1.40;;;18.20;99.90;;;;;;5101054;28;20220;-41
2022/06/27 00:23:04;;;;;;;3.10;1.30;;;18.20;99.90;;;;;;5099723;28;20241;-41
2022/06/27 00:25:30;;;;;;;2.03;0.97;;;18.10;99.90;;;;;;5100359;28;20218;-39
2022/06/27 00:27:55;;;;;;;3.20;1.13;;;17.70;99.90;;;;;;5100073;28;20603;-42
2022/06/27 00:30:21;;;;;;;3.50;1.63;;;17.60;99.90;;;;;;5100545;28;20256;-40
2022/06/27 00:32:48;;;;;;;4.13;1.53;;;17.40;99.90;;;;;;5100529;28;20249;-38
2022/06/27 00:35:14;;;;;;;2.50;1.70;;;17.30;99.90;;;;;;5099986;28;20176;-39
2022/06/27 00:37:40;;;;;;;3.07;1.40;;;17.20;99.90;;;;;;5100293;28;20512;-39
2022/06/27 00:40:07;;;;;;;4.37;1.47;;;17.10;99.90;;;;;;5100788;28;20830;-39
2022/06/27 00:42:34;;;;;;;2.70;2.13;;;17.10;99.90;;;;;;5099530;28;20216;-37
2022/06/27 00:44:59;;;;;;;2.77;1.20;;;17.10;99.90;;;;;;5100349;28;20786;-38
2022/06/27 00:47:25;;;;;;;3.13;1.27;;;17.00;99.90;;;;;;5100085;28;20906;-39
2022/06/27 00:49:51;;;;;;;3.37;1.77;;;17.10;99.90;;;;;;5100930;28;20268;-38
2022/06/27 00:52:17;;;;;;;3.00;1.40;;;17.10;99.90;;;;;;5099086;28;20566;-40
2022/06/27 00:54:45;;;;;;;2.70;1.47;;;17.10;99.90;;;;;;5099976;28;20185;-37
2022/06/27 00:57:12;;;;;;;2.90;1.40;;;17.10;99.90;;;;;;5100593;28;20488;-39
2022/06/27 00:59:38;;;;;;;1.83;1.30;;;17.10;99.90;;;;;;5100530;28;20451;-38
2022/06/27 01:02:04;;;;;;;2.00;1.40;;;17.10;99.90;;;;;;5100221;28;20415;-41
2022/06/27 01:04:30;;;;;;;2.33;1.30;;;17.00;99.90;;;;;;5099516;28;20423;-40
2022/06/27 01:06:56;;;;;;;2.27;1.47;;;17.00;99.90;;;;;;5100224;28;20472;-42
2022/06/27 01:09:23;;;;;;;3.70;1.40;;;17.00;99.90;;;;;;5099822;28;20419;-39
2022/06/27 01:11:49;;;;;;;3.20;1.40;;;17.10;99.90;;;;;;5100171;28;20692;-39
2022/06/27 01:14:15;;;;;;;2.90;1.13;;;17.10;99.90;;;;;;5099616;28;20682;-39
2022/06/27 01:16:41;;;;;;;2.27;1.20;;;17.10;99.90;;;;;;5100153;28;20406;-42
2022/06/27 01:19:11;;;;;;;3.60;1.27;;;17.10;99.90;;;;;;5099835;28;20723;-39
2022/06/27 01:21:46;;;;;;;2.27;0.97;;;17.10;99.90;;;;;;5099986;28;20244;-42
2022/06/27 01:24:11;;;;;;;2.37;1.00;;;17.10;99.90;;;;;;5099901;28;20762;-40
2022/06/27 01:26:37;;;;;;;2.90;1.10;;;17.10;99.90;;;;;;5098641;28;20521;-42
2022/06/27 01:29:04;;;;;;;3.63;1.10;;;17.10;99.90;;;;;;5100139;28;20190;-39
2022/06/27 01:31:30;;;;;;;1.77;0.80;;;17.10;99.90;;;;;;5099610;28;20631;-40
2022/06/27 01:33:57;;;;;;;2.10;0.97;;;17.10;99.90;;;;;;5099567;28;20436;-40
2022/06/27 01:39:10;;;;;;;2.20;1.37;;;17.00;99.90;;;;;;5098440;28;20550;-44
2022/06/27 01:41:49;;;;;;;1.60;1.10;;;17.00;99.90;;;;;;5099521;28;20505;-40
2022/06/27 01:44:16;;;;;;;2.30;1.20;;;17.00;99.90;;;;;;5097954;28;20701;-43
2022/06/27 01:47:04;;;;;;;2.23;1.20;;;17.00;99.90;;;;;;5097930;28;20864;-45
2022/06/27 01:49:31;;;;;;;2.73;1.30;;;16.90;99.90;;;;;;5098023;28;20427;-44
2022/06/27 01:51:58;;;;;;;1.93;1.70;;;16.90;99.90;;;;;;5096766;28;20419;-39
2022/06/27 01:54:24;;;;;;;3.07;1.40;;;17.00;99.90;;;;;;5097652;28;20427;-42
2022/06/27 01:56:51;;;;;;;2.80;1.47;;;17.10;99.90;;;;;;5097681;28;20411;-42
2022/06/27 01:59:20;;;;;;;2.90;1.30;;;17.20;99.90;;;;;;5097260;28;20432;-39
2022/06/27 02:01:46;;;;;;;2.60;1.20;;;17.30;99.90;;;;;;5098684;28;20403;-43
2022/06/27 02:04:12;;;;;;;3.57;1.20;;;17.40;99.90;;;;;;5099405;28;20521;-40
2022/06/27 02:06:39;;;;;;;2.40;1.63;;;17.40;99.90;;;;;;5099264;28;20466;-39
2022/06/27 02:09:07;;;;;;;2.03;1.10;;;17.40;99.90;;;;;;5098957;28;20432;-40
2022/06/27 02:11:33;;;;;;;2.83;1.33;;;17.40;99.90;;;;;;5098459;28;20516;-40
2022/06/27 02:13:59;;;;;;;3.37;1.73;;;17.50;99.90;;;;;;5098788;28;20467;-42
2022/06/27 02:16:25;;;;;;;2.30;1.30;;;17.40;99.90;;;;;;5097335;28;20219;-42
2022/06/27 02:18:51;;;;;;;3.20;1.20;;;17.60;99.90;;;;;;5098278;28;20440;-39
2022/06/27 02:21:24;;;;;;;1.90;1.07;;;17.60;99.90;;;;;;5098350;28;20419;-40
2022/06/27 02:23:51;;;;;;;2.90;1.20;;;17.60;99.90;;;;;;5098471;28;20450;-40
2022/06/27 02:26:17;;;;;;;3.93;1.70;;;17.60;99.90;;;;;;5098378;28;20464;-42
2022/06/27 02:28:43;;;;;;;2.33;1.50;;;17.70;99.90;;;;;;5098353;28;20503;-40
2022/06/27 02:31:10;;;;;;;4.07;1.50;;;17.70;99.90;;;;;;5098230;28;20794;-40
2022/06/27 02:33:41;;;;;;;1.67;1.40;;;17.70;99.90;;;;;;5097699;28;20411;-39
2022/06/27 02:36:09;;;;;;;2.93;1.30;;;17.70;99.90;;;;;;5098766;28;20470;-42
2022/06/27 02:38:36;;;;;;;3.27;1.40;;;17.50;99.90;;;;;;5098368;28;20844;-40
2022/06/27 02:41:04;;;;;;;2.50;1.20;;;17.50;99.90;;;;;;5098427;28;20806;-40
2022/06/27 02:43:33;;;;;;;4.53;1.83;;;17.60;99.90;;;;;;5096802;28;20494;-39
2022/06/27 02:45:58;;;;;;;3.03;1.40;;;17.70;99.90;;;;;;5097545;28;20464;-39
2022/06/27 02:48:25;;;;;;;1.83;1.50;;;17.60;99.90;;;;;;5097045;28;20417;-40
2022/06/27 02:51:01;;;;;;;3.63;1.73;;;17.60;99.90;;;;;;5097567;28;20188;-42
2022/06/27 02:53:32;;;;;;;1.87;1.57;;;17.60;99.90;;;;;;5096569;28;20499;-41
2022/06/27 02:55:59;;;;;;;2.80;1.40;;;17.60;99.90;;;;;;5097365;28;20419;-39
2022/06/27 02:58:39;;;;;;;3.47;1.80;;;17.60;99.90;;;;;;5096696;28;20412;-38
2022/06/27 03:01:05;;;;;;;4.27;1.20;;;17.50;99.90;;;;;;5095218;28;20425;-45
2022/06/27 03:03:32;;;;;;;3.57;2.13;;;17.40;99.90;;;;;;5096734;28;20407;-42
2022/06/27 03:06:03;;;;;;;2.60;1.73;;;17.40;99.90;;;;;;5096561;28;20486;-47
2022/06/27 03:08:46;;;;;;;1.93;1.53;;;17.30;99.90;;;;;;5096169;28;20694;-39
2022/06/27 03:11:14;;;;;;;4.40;2.10;;;17.30;99.90;;;;;;5096068;28;20442;-40
2022/06/27 03:13:40;;;;;;;3.40;1.70;;;17.30;99.90;;;;;;5095477;28;20524;-42
2022/06/27 03:16:08;;;;;;;3.07;1.67;;;17.30;99.90;;;;;;5096601;28;20573;-40
2022/06/27 03:18:33;;;;;;;3.23;1.90;;;17.20;99.90;;;;;;5096567;28;20455;-39
2022/06/27 03:20:59;;;;;;;4.73;2.07;;;17.20;99.90;;;;;;5091814;28;20489;-40
2022/06/27 03:23:25;;;;;;;3.00;2.00;;;17.20;99.90;;;;;;5079546;28;20200;-41
2022/06/27 03:25:51;;;;;;;3.10;2.27;;;17.10;99.90;;;;;;5094239;28;20220;-39
2022/06/27 03:28:17;;;;;;;2.73;2.00;;;17.10;99.90;;;;;;5097002;28;20171;-43
2022/06/27 03:30:43;;;;;;;2.23;1.80;;;17.10;99.90;;;;;;5096410;28;20863;-39
2022/06/27 03:33:08;;;;;;;3.13;2.23;;;17.10;99.90;;;;;;5097741;28;20419;-39
2022/06/27 03:35:34;;;;;;;2.07;1.77;;;17.00;99.90;;;;;;5097896;28;20442;-40
2022/06/27 03:38:00;;;;;;;4.97;2.37;;;17.10;99.90;;;;;;5097085;28;20189;-40
2022/06/27 03:40:26;;;;;;;2.70;1.80;;;17.20;99.90;;;;;;5097060;28;20196;-39
2022/06/27 03:42:51;;;;;;;5.97;2.50;;;17.30;99.90;;;;;;5096311;28;20212;-41
2022/06/27 03:45:18;;;;;;;1.90;1.70;;;17.30;99.90;;;;;;5096048;28;20893;-40
2022/06/27 03:47:52;;;;;;;2.10;1.70;;;17.40;99.90;;;;;;5096164;28;20182;-41
2022/06/27 03:50:18;;;;;;;3.13;2.37;;;17.40;99.90;;;;;;5095474;28;20427;-40
2022/06/27 03:52:44;;;;;;;3.00;1.50;;;17.40;99.90;;;;;;5095754;28;20438;-41
2022/06/27 03:55:10;;;;;;;2.30;1.50;;;17.40;99.90;;;;;;5094488;28;20459;-39
2022/06/27 03:57:37;;;;;;;2.60;1.80;;;17.40;99.90;;;;;;5073843;28;20432;-40
2022/06/27 04:00:08;;;;;;;1.87;1.47;;;17.50;99.90;;;;;;5075390;28;20493;-43
2022/06/27 04:02:34;;;;;;;3.07;1.70;;;17.60;99.90;;;;;;5075162;28;20428;-41
2022/06/27 04:05:00;;;;;;;2.17;1.90;;;17.70;99.90;;;;;;5075091;28;20459;-40
2022/06/27 04:07:26;;;;;;;3.40;1.90;;;17.80;99.90;;;;;;5075445;28;20729;-40
2022/06/27 04:09:51;;;;;;;2.30;2.10;;;17.80;99.90;;;;;;5075556;28;20424;-44
2022/06/27 04:12:17;;;;;;;2.43;1.67;;;17.70;99.90;;;;;;5093724;28;20177;-40
2022/06/27 04:14:43;;;;;;;2.20;1.83;;;17.70;99.90;;;;;;5077301;28;20185;-40
2022/06/27 04:17:08;;;;;;;3.13;2.17;;;17.70;99.90;;;;;;5075324;28;20459;-43
2022/06/27 04:19:34;;;;;;;4.30;2.10;;;17.70;99.90;;;;;;5075209;28;20189;-38
2022/06/27 04:21:59;;;;;;;2.60;2.10;;;17.70;99.90;;;;;;5090622;28;20186;-40
2022/06/27 04:24:25;;;;;;;3.43;2.20;;;17.60;99.90;;;;;;5093698;28;20200;-40
2022/06/27 04:26:51;;;;;;;4.40;3.47;;;17.60;99.90;;;;;;5097351;28;20223;-41
2022/06/27 04:29:16;;;;;;;3.60;2.10;;;17.60;99.90;;;;;;5098591;28;20808;-40
2022/06/27 04:31:42;;;;;;;2.53;2.03;;;17.70;99.90;;;;;;5098701;28;20245;-44
2022/06/27 04:34:12;;;;;;;3.23;1.80;;;17.70;99.90;;;;;;5099820;28;20458;-41
2022/06/27 04:36:37;;;;;;;3.97;2.13;;;17.80;99.90;;;;;;5099228;28;20442;-40
2022/06/27 04:39:03;;;;;;;3.67;2.40;;;18.00;99.90;;;;;;5098108;28;20426;-44
2022/06/27 04:41:29;;;;;;;3.00;2.37;;;18.10;99.90;;;;;;5098090;28;20452;-42
2022/06/27 04:43:55;;;;;;;2.93;1.97;;;18.30;99.90;;;;;;5097803;28;20517;-44
2022/06/27 04:46:21;;;;;;;3.93;2.37;;;18.30;99.90;;;;;;5097894;28;20209;-44
2022/06/27 04:48:48;;;;;;;4.47;2.47;;;18.30;99.90;;;;;;5098029;28;20766;-43
2022/06/27 04:51:14;;;;;;;1.90;1.70;;;18.30;99.90;;;;;;5098471;28;20169;-43
2022/06/27 04:53:41;;;;;;;2.27;2.07;;;18.40;99.90;;;;;;5098387;28;20837;-42
2022/06/27 04:56:08;;;;;;;2.80;2.50;;;18.40;99.90;;;;;;5098848;28;20844;-42
2022/06/27 04:58:35;;;;;;;3.07;2.40;;;18.40;99.90;;;;;;5096136;28;20410;-41
2022/06/27 05:01:01;;;;;;;3.97;2.67;;;18.40;99.90;;;;;;5095938;28;20478;-46
2022/06/27 05:03:27;;;;;;;3.10;2.80;;;18.40;99.90;;;;;;5097249;28;20687;-45
2022/06/27 05:05:53;;;;;;;3.50;2.43;;;18.40;99.90;;;;;;5096655;28;20472;-44
2022/06/27 05:08:20;;;;;;;2.57;2.37;;;18.40;99.90;;;;;;5098030;28;20418;-44
2022/06/27 05:10:46;;;;;;;2.53;2.10;;;18.50;99.90;;;;;;5098307;28;20471;-39
2022/06/27 05:13:12;;;;;;;2.50;1.90;;;18.70;99.90;;;;;;5097272;28;20441;-44
2022/06/27 05:15:38;;;;;;;3.40;2.10;;;18.80;99.90;;;;;;5096139;28;20433;-41
2022/06/27 05:18:04;;;;;;;2.43;1.83;;;18.90;99.90;;;;;;5097135;28;20427;-44
2022/06/27 05:20:30;;;;;;;4.13;2.10;;;19.00;99.90;;;;;;5093501;28;20181;-41
2022/06/27 05:23:02;;;;;;;2.83;2.20;;;19.00;99.90;;;;;;5095226;28;20437;-44
2022/06/27 05:25:28;;;;;;;2.00;1.80;;;19.00;99.90;;;;;;5095760;28;20466;-46
2022/06/27 05:27:56;;;;;;;2.43;2.23;;;19.10;99.90;;;;;;5093706;28;20503;-45
2022/06/27 05:30:22;;;;;;;3.43;1.80;;;19.30;99.90;;;;;;5091922;28;20850;-49
2022/06/27 05:32:49;;;;;;;2.57;1.90;;;19.40;99.90;;;;;;5093138;28;20429;-45
2022/06/27 05:35:14;;;;;;;3.33;1.77;;;19.60;99.90;;;;;;5091052;28;20196;-46
2022/06/27 05:37:43;;;;;;;2.07;1.70;;;19.70;99.90;;;;;;5093162;28;20584;-46
2022/06/27 05:40:09;;;;;;;2.60;1.80;;;19.70;99.90;;;;;;5093736;28;20188;-46
2022/06/27 05:42:36;;;;;;;2.40;1.50;;;19.70;99.90;;;;;;5092853;28;20426;-45
2022/06/27 05:45:02;;;;;;;2.80;1.90;;;19.70;99.90;;;;;;5094798;28;20749;-47
2022/06/27 05:47:29;;;;;;;2.40;2.00;;;19.70;99.90;;;;;;5096170;28;20251;-46
2022/06/27 05:49:54;;;;;;;2.57;2.07;;;19.70;99.90;;;;;;5095177;28;20422;-45
2022/06/27 05:52:21;;;;;;;5.83;3.07;;;19.60;99.90;;;;;;5093924;28;20840;-44
2022/06/27 05:54:47;;;;;;;3.80;2.80;;;19.50;99.90;;;;;;5092346;28;20469;-43
2022/06/27 05:57:14;;;;;;;4.57;3.30;;;19.30;99.90;;;;;;5092941;28;20729;-45
2022/06/27 05:59:41;;;;;;;4.83;3.43;;;19.30;99.90;;;;;;5091942;28;20442;-44
2022/06/27 06:02:07;;;;;;;6.93;3.67;;;19.30;99.90;;;;;;5092181;28;20514;-45
2022/06/27 06:04:33;;;;;;;3.57;3.20;;;19.30;99.90;;;;;;5092629;28;20444;-46
2022/06/27 06:06:59;;;;;;;3.27;2.43;;;19.30;99.90;;;;;;5093829;28;20222;-44
2022/06/27 06:09:25;;;;;;;2.87;2.20;;;19.30;99.90;;;;;;5095362;28;20510;-44
2022/06/27 06:11:51;;;;;;;3.23;2.10;;;19.30;99.90;;;;;;5094917;28;20411;-44
2022/06/27 06:14:19;;;;;;;4.83;2.40;;;19.30;99.90;;;;;;5094698;28;20462;-43
2022/06/27 06:16:45;;;;;;;2.63;2.10;;;19.40;99.90;;;;;;5094304;28;20428;-45
2022/06/27 06:19:11;;;;;;;3.67;1.67;;;19.40;99.90;;;;;;5095499;28;20811;-45
2022/06/27 06:21:38;;;;;;;2.20;1.70;;;19.50;99.90;;;;;;5094493;28;20522;-45
2022/06/27 06:24:04;;;;;;;2.23;1.70;;;19.70;99.90;;;;;;5096088;28;20437;-49
2022/06/27 06:26:30;;;;;;;3.37;1.73;;;19.90;99.90;;;;;;5095211;28;20792;-50
2022/06/27 06:28:58;;;;;;;1.63;1.53;;;20.20;99.90;;;;;;5093179;28;20441;-48
2022/06/27 06:31:25;;;;;;;3.00;1.90;;;20.50;99.90;;;;;;5093328;28;20220;-43
2022/06/27 06:33:55;;;;;;;1.50;1.30;;;20.70;99.90;;;;;;5094943;28;20718;-45
2022/06/27 06:36:21;;;;;;;2.23;1.37;;;20.90;99.90;;;;;;5093688;28;20410;-44
2022/06/27 06:38:49;;;;;;;3.40;1.63;;;21.10;99.90;;;;;;5094575;28;20413;-45
2022/06/27 06:41:14;;;;;;;1.57;1.17;;;21.40;99.90;;;;;;5093725;28;20429;-44
2022/06/27 06:43:41;;;;;;;1.60;1.30;;;21.80;99.90;;;;;;5094241;28;20971;-45
2022/06/27 06:46:09;;;;;;;2.60;1.13;;;22.20;99.90;;;;;;5094537;28;20284;-45
2022/06/27 06:48:37;;;;;;;3.37;1.73;;;22.60;99.90;;;;;;5094124;28;20465;-45
2022/06/27 06:51:03;;;;;;;2.37;1.30;;;23.00;99.70;;;;;;5093829;28;20763;-49
2022/06/27 06:53:29;;;;;;;2.57;1.37;;;23.30;98.70;;;;;;5092499;28;20417;-46
2022/06/27 06:55:57;;;;;;;2.47;1.20;;;23.40;98.00;;;;;;5092682;28;20422;-46
2022/06/27 06:58:22;;;;;;;1.73;1.03;;;23.50;98.20;;;;;;5093178;28;20458;-45
2022/06/27 07:00:49;;;;;;;1.80;1.10;;;23.70;96.60;;;;;;5091483;28;20481;-47
2022/06/27 07:03:15;;;;;;;2.20;1.10;;;23.70;95.90;;;;;;5090663;28;20446;-48
2022/06/27 07:05:42;;;;;;;2.70;1.30;;;23.70;96.30;;;;;;5091900;28;20473;-46
2022/06/27 07:08:09;;;;;;;2.57;1.30;;;23.80;96.60;;;;;;5094396;28;20561;-45
2022/06/27 07:10:35;;;;;;;1.43;1.10;;;23.60;96.10;;;;;;5094447;28;20510;-50
2022/06/27 07:13:02;;;;;;;3.17;1.37;;;23.50;96.70;;;;;;5093977;28;20519;-50
2022/06/27 07:15:28;;;;;;;3.30;1.43;;;23.60;97.70;;;;;;5092273;28;20637;-45
2022/06/27 07:17:54;;;;;;;2.10;1.13;;;23.90;97.90;;;;;;5090359;28;20431;-50
2022/06/27 07:20:20;;;;;;;1.83;1.13;;;24.10;97.40;;;;;;5090639;28;20644;-44
2022/06/27 07:22:49;;;;;;;3.10;1.60;;;24.30;96.80;;;;;;5089765;28;20187;-45
2022/06/27 07:25:16;;;;;;;1.90;1.20;;;24.50;96.40;;;;;;5091125;28;20995;-47
2022/06/27 07:27:44;;;;;;;1.50;1.10;;;24.50;96.30;;;;;;5094634;28;20422;-46
2022/06/27 07:30:11;;;;;;;1.57;1.00;;;24.60;96.00;;;;;;5094480;28;20430;-48
2022/06/27 07:32:40;;;;;;;2.13;1.10;;;24.70;95.90;;;;;;5091930;28;20476;-45
2022/06/27 07:35:14;;;;;;;2.60;1.20;;;24.80;95.80;;;;;;5095631;28;20442;-45
2022/06/27 07:37:49;;;;;;;2.40;1.67;;;25.00;94.90;;;;;;5094286;28;20806;-46
2022/06/27 07:40:19;;;;;;;1.40;1.13;;;25.10;95.20;;;;;;5093274;28;20404;-49
2022/06/27 07:42:46;;;;;;;1.93;1.20;;;25.20;95.40;;;;;;5093986;28;20435;-46
2022/06/27 07:45:14;;;;;;;2.13;1.00;;;25.10;95.20;;;;;;5094781;28;20473;-47
2022/06/27 07:47:40;;;;;;;1.17;0.90;;;25.10;95.00;;;;;;5094916;28;20438;-43
2022/06/27 07:50:07;;;;;;;3.37;1.20;;;25.10;95.20;;;;;;5093999;28;20417;-49
2022/06/27 07:53:11;;;;;;;2.23;1.03;;;25.00;94.20;;;;;;5094011;28;20436;-47
2022/06/27 07:55:19;;;;;;;1.70;1.20;;;24.90;94.40;;;;;;5093221;28;20426;-48
2022/06/27 07:57:46;;;;;;;3.23;1.40;;;24.70;94.30;;;;;;5092034;28;20446;-45
2022/06/27 08:00:13;;;;;;;1.40;1.20;;;24.60;94.00;;;;;;5093219;28;20439;-46
2022/06/27 08:02:39;;;;;;;1.70;1.37;;;24.40;94.70;;;;;;5097043;28;20668;-46
2022/06/27 08:05:05;;;;;;;2.13;1.30;;;24.40;94.30;;;;;;5098367;28;20493;-47
2022/06/27 08:07:31;;;;;;;1.67;1.57;;;24.40;94.60;;;;;;5097462;28;20438;-47
2022/06/27 08:09:57;;;;;;;3.13;1.50;;;24.40;94.60;;;;;;5098397;28;20417;-44
2022/06/27 08:12:22;;;;;;;4.27;1.50;;;24.60;95.00;;;;;;5098849;28;20206;-49
2022/06/27 08:14:49;;;;;;;2.43;1.37;;;24.80;94.40;;;;;;5098083;28;20523;-46
2022/06/27 08:17:15;;;;;;;1.33;1.20;;;25.00;93.80;;;;;;5099954;28;20175;-45
2022/06/27 08:19:41;;;;;;;1.70;1.30;;;25.20;93.60;;;;;;5098853;28;20429;-45
2022/06/27 08:22:08;;;;;;;2.30;1.30;;;25.50;93.50;;;;;;5079994;28;20423;-46
2022/06/27 08:24:33;;;;;;;4.33;1.80;;;26.00;92.70;;;;;;5078479;28;20452;-48
2022/06/27 08:26:59;;;;;;;2.33;1.33;;;26.60;93.00;;;;;;5077211;28;20479;-59
2022/06/27 08:29:27;;;;;;;1.60;1.50;;;27.00;91.90;;;;;;5077674;28;20439;-50
2022/06/27 08:31:52;;;;;;;1.60;1.33;;;27.20;90.20;;;;;;5078172;28;20463;-49
2022/06/27 08:34:21;;;;;;;1.90;1.23;;;27.30;90.20;;;;;;5076520;28;20878;-50
2022/06/27 08:36:46;;;;;;;1.60;1.40;;;27.30;89.20;;;;;;5077022;28;20428;-48
2022/06/27 08:39:16;;;;;;;2.60;1.37;;;27.20;89.50;;;;;;5076802;28;20445;-46
2022/06/27 08:41:46;;;;;;;2.63;1.43;;;27.00;90.20;;;;;;5076496;28;20204;-47
2022/06/27 08:44:13;;;;;;;2.43;1.17;;;26.70;90.20;;;;;;5075696;28;20905;-47
2022/06/27 08:46:40;;;;;;;2.80;1.20;;;26.60;90.80;;;;;;5074153;28;20485;-51
2022/06/27 08:49:07;;;;;;;3.23;1.70;;;26.40;89.40;;;;;;5075126;28;20703;-51
2022/06/27 08:51:33;;;;;;;1.40;1.30;;;26.00;89.80;;;;;;5078040;28;20789;-47
2022/06/27 08:53:59;;;;;;;2.07;1.43;;;25.90;90.40;;;;;;5077672;28;20425;-44
2022/06/27 08:56:26;;;;;;;1.57;1.30;;;25.70;91.00;;;;;;5077454;28;20489;-46
2022/06/27 08:58:55;;;;;;;1.53;1.40;;;25.60;91.80;;;;;;5077920;28;20431;-45
2022/06/27 09:01:23;;;;;;;1.87;1.57;;;25.40;92.30;;;;;;5078235;28;20437;-47
2022/06/27 09:04:03;;;;;;;1.90;1.50;;;25.20;92.70;;;;;;5077459;28;20458;-46
2022/06/27 09:06:48;;;;;;;2.53;1.60;;;25.00;92.40;;;;;;5077769;28;20496;-48
2022/06/27 09:09:15;;;;;;;2.43;1.60;;;24.70;93.10;;;;;;5081764;28;20538;-48
2022/06/27 09:11:43;;;;;;;2.10;1.40;;;24.40;93.90;;;;;;5098046;28;20503;-50
2022/06/27 09:14:35;;;;;;;2.20;1.30;;;24.10;95.00;;;;;;5095424;28;20431;-48
2022/06/27 09:17:04;;;;;;;2.40;1.60;;;23.70;95.50;;;;;;5098131;28;20421;-55
2022/06/27 09:19:51;;;;;;;3.30;1.50;;;23.50;96.10;;;;;;5097589;28;20440;-50
2022/06/27 09:22:19;;;;;;;1.70;1.40;;;23.40;96.40;;;;;;5098565;28;20428;-50
2022/06/27 09:25:21;;;;;;;3.43;1.73;;;23.30;96.40;;;;;;5098339;28;20507;-49
2022/06/27 09:27:50;;;;;;;3.37;1.80;;;23.30;96.50;;;;;;5097202;28;20423;-48
2022/06/27 09:30:22;;;;;;;2.70;1.53;;;23.30;96.60;;;;;;5097889;28;20438;-48
2022/06/27 09:32:59;;;;;;;2.57;1.37;;;23.40;97.00;;;;;;5098123;28;20551;-53
2022/06/27 09:35:25;;;;;;;1.60;1.20;;;23.40;96.80;;;;;;5097395;28;20474;-52
2022/06/27 09:38:10;;;;;;;4.60;1.70;;;23.40;96.70;;;;;;5098103;28;20706;-48
2022/06/27 09:40:39;;;;;;;14.60;3.63;;;23.50;96.80;;;;;;5096717;28;20441;-48
2022/06/27 09:43:06;;;;;;;2.80;1.80;;;23.70;96.40;;;;;;5097473;28;20710;-50
2022/06/27 09:45:32;;;;;;;3.43;2.03;;;23.70;96.20;;;;;;5095911;28;20460;-49
2022/06/27 09:48:04;;;;;;;3.47;1.60;;;23.70;96.30;;;;;;5097305;28;20708;-48
2022/06/27 09:50:33;;;;;;;3.67;1.87;;;23.70;96.20;;;;;;5096225;28;20178;-46
2022/06/27 09:52:59;;;;;;;2.57;1.70;;;23.80;95.90;;;;;;5095952;28;20434;-48
2022/06/27 09:55:25;;;;;;;3.10;1.73;;;23.80;95.70;;;;;;5095245;28;20424;-49
2022/06/27 09:57:52;;;;;;;4.60;2.10;;;23.70;95.80;;;;;;5093868;28;20970;-48
2022/06/27 10:00:20;;;;;;;2.40;1.53;;;23.70;95.80;;;;;;5095549;28;20425;-44
2022/06/27 10:02:46;;;;;;;1.73;1.53;;;23.70;95.90;;;;;;5096294;28;20708;-46
2022/06/27 10:05:16;;;;;;;2.10;1.60;;;23.70;95.90;;;;;;5095046;28;20462;-51
2022/06/27 10:07:58;;;;;;;2.60;2.03;;;23.70;95.80;;;;;;5094556;28;20437;-46
2022/06/27 10:10:24;;;;;;;1.83;1.70;;;23.70;95.40;;;;;;5095604;28;20707;-48
2022/06/27 10:13:03;;;;;;;2.90;1.80;;;23.70;95.30;;;;;;5079164;28;20433;-51
2022/06/27 10:15:35;;;;;;;1.63;1.53;;;23.60;95.60;;;;;;5094903;28;20526;-49
2022/06/27 10:18:02;;;;;;;1.90;1.60;;;23.50;95.30;;;;;;5094235;28;20946;-48
2022/06/27 10:20:33;;;;;;;2.87;1.87;;;23.40;95.30;;;;;;5092213;28;20433;-44
2022/06/27 10:23:13;;;;;;;2.40;2.00;;;23.30;95.30;;;;;;5093970;28;20447;-49
2022/06/27 10:25:46;;;;;;;2.93;1.80;;;23.10;95.50;;;;;;5094246;28;20463;-44
2022/06/27 10:28:12;;;;;;;3.80;2.07;;;22.90;95.80;;;;;;5094076;28;20433;-45
2022/06/27 10:30:48;;;;;;;2.87;2.13;;;22.50;96.40;;;;;;5094750;28;20735;-44
2022/06/27 10:33:26;;;;;;;2.50;1.90;;;22.50;96.90;;;;;;5095523;28;20435;-45
2022/06/27 10:38:30;;;;;;;3.23;2.30;;;22.20;97.30;;;;;;5094825;28;20693;-47
2022/06/27 10:41:00;;;;;;;3.23;2.10;;;22.30;97.80;;;;;;5093079;28;20425;-46
2022/06/27 10:43:46;;;;;;;3.40;1.93;;;22.40;98.50;;;;;;5093638;28;20924;-45
2022/06/27 10:46:11;;;;;;;2.10;1.90;;;22.40;98.70;;;;;;5092868;28;20563;-45
2022/06/27 10:48:42;;;;;;;2.63;2.33;;;22.40;98.70;;;;;;5093810;28;20563;-45
2022/06/27 10:51:24;;;;;;;2.80;2.20;;;22.50;98.80;;;;;;5093547;28;20189;-46
2022/06/27 10:54:11;;;;;;;3.67;2.80;;;22.60;98.20;;;;;;5093122;28;20534;-48
2022/06/27 10:56:58;;;;;;;2.93;2.67;;;22.80;98.10;;;;;;5095718;28;20722;-46
2022/06/27 10:59:29;;;;;;;2.63;2.33;;;22.90;97.70;;;;;;5091592;28;20764;-45
2022/06/27 11:02:00;;;;;;;2.50;2.30;;;23.10;97.60;;;;;;5083499;28;20756;-49
2022/06/27 11:04:28;;;;;;;2.50;2.30;;;23.30;97.00;;;;;;5099832;28;20469;-48
2022/06/27 11:06:59;;;;;;;3.50;2.33;;;23.50;96.90;;;;;;5091690;28;20468;-45
2022/06/27 11:09:37;;;;;;;2.63;2.43;;;23.40;96.60;;;;;;5094774;28;20529;-49
2022/06/27 11:12:05;;;;;;;4.77;2.90;;;23.50;96.70;;;;;;5093850;28;20436;-43
2022/06/27 11:14:42;;;;;;;3.20;3.00;;;23.40;96.20;;;;;;5094134;28;20537;-43
2022/06/27 11:17:23;;;;;;;3.67;3.37;;;23.20;96.50;;;;;;5094385;28;20433;-47
2022/06/27 11:20:14;;;;;;;3.60;3.30;;;23.10;96.70;;;;;;5094105;28;20437;-44
2022/06/27 11:22:54;;;;;;;3.27;3.07;;;22.70;96.80;;;;;;5095779;28;20474;-45
2022/06/27 11:25:21;;;;;;;3.43;3.20;;;22.50;97.30;;;;;;5094597;28;20455;-46
2022/06/27 11:27:49;;;;;;;3.00;2.80;;;22.40;97.30;;;;;;5094660;28;20414;-48
2022/06/27 11:33:25;;;;;;;3.37;3.07;;;22.30;97.20;;;;;;5088152;28;20476;-45
2022/06/27 11:35:53;;;;;;;3.60;3.07;;;22.20;97.30;;;;;;5077518;28;20434;-50
2022/06/27 11:38:24;;;;;;;2.90;2.70;;;22.00;97.00;;;;;;5093026;28;20535;-47
2022/06/27 11:41:01;;;;;;;3.10;2.80;;;21.90;97.50;;;;;;5096052;28;20425;-49
2022/06/27 11:43:56;;;;;;;3.30;3.10;;;22.00;97.60;;;;;;5095110;28;20849;-48
2022/06/27 11:46:23;;;;;;;2.97;2.77;;;21.80;96.80;;;;;;5093690;28;20501;-45
2022/06/27 11:48:54;;;;;;;3.30;2.60;;;21.60;96.60;;;;;;5095833;28;20538;-49
2022/06/27 11:51:22;;;;;;;3.83;2.70;;;21.50;96.50;;;;;;5094373;28;20751;-49
2022/06/27 11:53:52;;;;;;;3.57;2.80;;;21.50;96.90;;;;;;5094839;28;20853;-46
2022/06/27 11:56:25;;;;;;;3.83;3.53;;;21.70;96.80;;;;;;5093685;28;20429;-48
2022/06/27 11:58:55;;;;;;;2.70;2.30;;;22.00;97.00;;;;;;5094748;28;20475;-50
2022/06/27 12:01:24;;;;;;;2.50;2.30;;;22.20;96.00;;;;;;5094884;28;20468;-51
2022/06/27 12:04:28;;;;;;;3.00;2.67;;;22.20;95.40;;;;;;5093958;28;20504;-47
2022/06/27 12:07:04;;;;;;;3.03;2.43;;;22.30;95.60;;;;;;5031244;28;20483;-49
2022/06/27 12:09:29;;;;;;;3.00;2.27;;;22.20;95.20;;;;;;5083071;28;20463;-45
2022/06/27 12:12:01;;;;;;;2.67;2.47;;;22.20;95.40;;;;;;5092602;28;20493;-46
2022/06/27 12:14:28;;;;;;;2.60;2.40;;;22.00;96.10;;;;;;5093078;28;20202;-46
2022/06/27 12:16:57;;;;;;;2.50;2.30;;;21.90;96.20;;;;;;5093094;28;20702;-48
2022/06/27 12:19:24;;;;;;;2.67;2.47;;;21.80;96.10;;;;;;5092153;28;20438;-45
2022/06/27 12:21:50;;;;;;;3.73;3.10;;;21.60;97.00;;;;;;5093521;28;20435;-47
2022/06/27 12:24:15;;;;;;;3.13;2.93;;;21.50;97.50;;;;;;5094319;28;20458;-48
2022/06/27 12:26:42;;;;;;;5.43;2.93;;;21.50;98.10;;;;;;5093077;28;20465;-46
2022/06/27 12:29:08;;;;;;;4.87;3.27;;;21.40;98.30;;;;;;5094431;28;20265;-46
2022/06/27 12:31:35;;;;;;;3.60;2.83;;;21.40;98.40;;;;;;5094566;28;20791;-45
2022/06/27 12:34:01;;;;;;;3.07;2.80;;;21.40;98.30;;;;;;5092899;28;20439;-49
2022/06/27 12:36:30;;;;;;;2.90;2.70;;;21.40;98.00;;;;;;5094416;28;20421;-50
2022/06/27 12:38:56;;;;;;;3.73;3.43;;;21.30;97.40;;;;;;5095576;28;20421;-47
2022/06/27 12:41:22;;;;;;;3.30;3.00;;;21.10;96.60;;;;;;5094821;28;20698;-48
2022/06/27 12:43:47;;;;;;;3.50;2.50;;;21.00;96.40;;;;;;5096666;28;20525;-45
2022/06/27 12:46:15;;;;;;;2.90;2.70;;;20.90;96.40;;;;;;5096116;28;20736;-47
2022/06/27 12:48:42;;;;;;;3.17;2.97;;;20.90;96.70;;;;;;5098736;28;20459;-45
2022/06/27 12:51:07;;;;;;;4.57;2.77;;;20.90;97.00;;;;;;5100316;28;20817;-45
2022/06/27 12:53:33;;;;;;;2.50;2.30;;;20.90;97.20;;;;;;5098341;28;20420;-49
2022/06/27 12:56:01;;;;;;;3.23;2.87;;;20.80;97.30;;;;;;5099769;28;20518;-47
2022/06/27 12:58:28;;;;;;;2.90;2.60;;;20.90;97.50;;;;;;5096523;28;20420;-47
2022/06/27 13:00:54;;;;;;;2.60;2.40;;;21.10;97.50;;;;;;5094679;28;20574;-49
2022/06/27 13:03:19;;;;;;;5.80;3.10;;;21.20;97.40;;;;;;5095177;28;20515;-46